Time;durP1;ratioP1;P1;durP2;ratioP2;P2;SDS_P1;SDS_P2;PMS_P1;PMS_P2;Temp;Humidity;BMP_temperature;BMP_pressure;BME280_temperature;BME280_humidity;BME280_pressure;Samples;Min_cycle;Max_cycle;Signal;HPM_P1;HPM_P2
2022/08/11 06:02:54;;;;;;;5.43;3.60;;;21.80;76.90;;;;;;5091918;27;20552;-63
2022/08/11 06:05:21;;;;;;;3.53;3.33;;;21.90;76.40;;;;;;5091571;28;20430;-63
2022/08/11 06:07:49;;;;;;;3.83;3.50;;;22.30;75.00;;;;;;5091070;28;20935;-63
2022/08/11 06:10:26;;;;;;;5.80;3.77;;;22.80;72.50;;;;;;5091450;28;20857;-65
2022/08/11 06:12:54;;;;;;;5.50;3.23;;;23.10;71.60;;;;;;5091578;28;20434;-64
2022/08/11 06:15:21;;;;;;;4.03;3.63;;;23.30;68.90;;;;;;5091345;28;20445;-64
2022/08/11 06:17:50;;;;;;;4.03;3.67;;;23.70;67.20;;;;;;5090998;28;20817;-64
2022/08/11 06:20:20;;;;;;;9.70;3.50;;;24.10;66.90;;;;;;5091443;28;20445;-64
2022/08/11 06:22:55;;;;;;;7.00;3.20;;;24.30;64.50;;;;;;5091517;28;20845;-64
2022/08/11 06:25:23;;;;;;;4.00;3.63;;;24.70;65.20;;;;;;5091211;28;20444;-64
2022/08/11 06:27:56;;;;;;;4.17;3.70;;;25.00;62.10;;;;;;5091134;28;20872;-64
2022/08/11 06:30:33;;;;;;;4.90;3.50;;;25.20;61.90;;;;;;5090999;28;20444;-63
2022/08/11 06:33:04;;;;;;;3.30;3.10;;;25.50;60.50;;;;;;5090720;28;20463;-63
2022/08/11 06:35:44;;;;;;;4.47;3.33;;;25.90;59.50;;;;;;5091002;28;20516;-63
2022/08/11 06:38:19;;;;;;;3.47;3.27;;;26.10;58.60;;;;;;5091123;28;20464;-63
2022/08/11 06:43:45;;;;;;;6.40;3.60;;;26.20;57.60;;;;;;5090223;28;20793;-63
2022/08/11 06:46:16;;;;;;;6.43;3.73;;;26.60;57.40;;;;;;5090971;28;20491;-64
2022/08/11 06:48:45;;;;;;;5.50;3.80;;;26.80;57.00;;;;;;5090611;28;20434;-64
2022/08/11 06:51:12;;;;;;;3.90;3.60;;;27.00;56.50;;;;;;5090334;28;20994;-64
2022/08/11 06:53:43;;;;;;;5.47;3.30;;;27.40;55.90;;;;;;5090745;28;20473;-64
2022/08/11 07:01:48;;;;;;;6.30;3.47;;;28.10;55.20;;;;;;5090263;28;20475;-63
2022/08/11 07:04:25;;;;;;;4.30;3.40;;;28.20;54.20;;;;;;5090074;28;20773;-62
2022/08/11 07:15:58;;;;;;;4.40;3.33;;;29.90;51.30;;;;;;5076799;28;20430;-64
2022/08/11 07:29:38;;;;;;;4.23;3.47;;;31.10;49.50;;;;;;5080972;28;20452;-63
2022/08/11 07:32:22;;;;;;;5.07;3.20;;;31.40;49.00;;;;;;5079742;28;20462;-63
2022/08/11 07:34:53;;;;;;;3.80;3.50;;;31.80;48.20;;;;;;5077822;28;20933;-63
2022/08/11 07:37:22;;;;;;;3.10;2.80;;;32.10;47.50;;;;;;5076285;28;20439;-64
2022/08/11 07:39:50;;;;;;;3.90;3.40;;;32.30;46.60;;;;;;5076258;28;20450;-64
2022/08/11 07:42:23;;;;;;;6.33;3.83;;;32.60;47.30;;;;;;5076391;28;21026;-63
2022/08/11 07:53:09;;;;;;;3.93;3.00;;;33.00;45.60;;;;;;5077074;28;20433;-63
2022/08/11 07:55:37;;;;;;;7.23;2.97;;;33.30;44.90;;;;;;5076440;28;20450;-63
2022/08/11 08:20:13;;;;;;;6.67;3.00;;;34.60;42.50;;;;;;5076909;28;20941;-65
2022/08/11 08:22:40;;;;;;;2.47;2.37;;;34.60;42.40;;;;;;5076643;28;20464;-64
2022/08/11 08:25:09;;;;;;;3.17;2.97;;;35.00;41.70;;;;;;5075684;28;20471;-65
2022/08/11 08:27:38;;;;;;;3.27;3.03;;;35.40;40.90;;;;;;5076220;28;20453;-65
2022/08/11 08:32:52;;;;;;;4.30;3.90;;;35.60;41.00;;;;;;5075270;28;20775;-65
2022/08/11 08:35:20;;;;;;;3.40;3.10;;;35.50;39.50;;;;;;5075306;28;20458;-65
2022/08/11 08:37:49;;;;;;;9.60;3.27;;;35.40;41.00;;;;;;5075264;28;20530;-65
2022/08/11 08:40:18;;;;;;;7.47;2.70;;;35.50;40.40;;;;;;5075027;28;20453;-65
2022/08/11 08:42:50;;;;;;;3.13;2.83;;;35.50;41.80;;;;;;5074982;28;20480;-65
2022/08/11 08:45:18;;;;;;;3.53;2.70;;;35.50;40.10;;;;;;5075058;28;20522;-65
2022/08/11 08:47:47;;;;;;;3.73;3.43;;;35.70;40.00;;;;;;5075135;28;20485;-65
2022/08/11 08:50:18;;;;;;;4.50;2.90;;;36.20;39.90;;;;;;5081476;28;20463;-65
2022/08/11 08:52:52;;;;;;;3.03;2.60;;;36.50;39.30;;;;;;5083791;28;20433;-64
2022/08/11 08:55:22;;;;;;;3.20;3.00;;;37.00;38.30;;;;;;5085781;28;20434;-65
2022/08/11 08:57:50;;;;;;;2.90;2.80;;;36.50;38.10;;;;;;5079673;28;20460;-65
2022/08/11 09:00:18;;;;;;;3.67;2.07;;;36.30;38.30;;;;;;5074606;28;20461;-64
2022/08/11 09:02:45;;;;;;;3.40;2.47;;;36.40;37.10;;;;;;5074514;28;20485;-64
2022/08/11 09:05:12;;;;;;;2.83;2.30;;;36.60;36.70;;;;;;5074497;28;20511;-64
2022/08/11 09:07:40;;;;;;;8.00;2.60;;;36.50;36.70;;;;;;5074150;28;20998;-64
2022/08/11 09:10:09;;;;;;;4.53;2.63;;;36.40;36.30;;;;;;5074446;28;20449;-64
2022/08/11 09:12:40;;;;;;;2.93;2.53;;;36.10;36.70;;;;;;5074104;28;20557;-64
2022/08/11 09:15:10;;;;;;;3.70;2.27;;;36.10;36.90;;;;;;5074603;28;20791;-65
2022/08/11 09:17:39;;;;;;;5.83;2.20;;;36.40;36.20;;;;;;5074407;28;20456;-65
2022/08/11 09:20:08;;;;;;;3.20;2.90;;;36.40;35.60;;;;;;5074567;28;20449;-65
2022/08/11 09:28:13;;;;;;;6.67;2.63;;;36.30;35.70;;;;;;5074636;28;20773;-65
2022/08/11 09:30:42;;;;;;;2.00;1.80;;;36.30;35.40;;;;;;5074888;28;20481;-64
2022/08/11 09:33:12;;;;;;;2.33;2.20;;;36.40;35.20;;;;;;5074597;28;20477;-64
2022/08/11 09:35:41;;;;;;;2.90;2.50;;;36.60;34.60;;;;;;5073990;28;20944;-65
2022/08/11 09:40:56;;;;;;;2.90;2.33;;;36.50;34.50;;;;;;5074167;28;20453;-64
2022/08/11 09:46:10;;;;;;;2.07;1.90;;;36.90;34.90;;;;;;5074267;28;20417;-64
2022/08/11 09:48:40;;;;;;;2.10;2.00;;;37.40;35.40;;;;;;5074185;28;20453;-65
2022/08/11 09:51:09;;;;;;;2.50;2.10;;;37.70;33.30;;;;;;5074406;28;20527;-66
2022/08/11 09:53:38;;;;;;;2.37;2.17;;;37.20;33.50;;;;;;5074248;28;20450;-66
2022/08/11 09:58:51;;;;;;;2.40;2.20;;;36.90;34.10;;;;;;5073671;28;20445;-66
2022/08/11 10:01:28;;;;;;;4.60;2.20;;;37.00;35.10;;;;;;5073328;28;20488;-65
2022/08/11 10:03:59;;;;;;;2.33;2.10;;;37.40;33.90;;;;;;5074215;28;20433;-64
2022/08/11 10:09:15;;;;;;;5.50;2.43;;;37.70;32.30;;;;;;5074695;28;20416;-65
2022/08/11 10:11:43;;;;;;;2.13;2.03;;;37.80;32.50;;;;;;5076555;28;20465;-64
2022/08/11 10:16:57;;;;;;;2.40;2.30;;;37.90;33.20;;;;;;5075771;28;20491;-64
2022/08/11 10:19:24;;;;;;;2.53;2.43;;;37.60;33.30;;;;;;5074162;28;20445;-65
2022/08/11 10:27:18;;;;;;;2.33;2.10;;;37.10;33.50;;;;;;5073607;28;21005;-64
2022/08/11 10:35:15;;;;;;;2.20;2.13;;;37.50;32.40;;;;;;5073851;28;20421;-64
2022/08/11 10:37:45;;;;;;;2.40;2.20;;;37.20;32.90;;;;;;5073519;28;20958;-65
2022/08/11 10:40:15;;;;;;;4.00;2.30;;;37.50;33.50;;;;;;5073511;28;20472;-65
2022/08/11 10:48:15;;;;;;;2.10;2.00;;;38.00;31.40;;;;;;5075252;28;20821;-67
2022/08/11 10:59:02;;;;;;;2.87;2.30;;;37.90;31.40;;;;;;5077500;28;20799;-65
2022/08/11 11:01:33;;;;;;;2.13;1.93;;;38.00;31.60;;;;;;5076772;28;20480;-65
2022/08/11 11:04:03;;;;;;;2.80;2.30;;;37.90;31.30;;;;;;5077199;28;20457;-65
2022/08/11 11:06:43;;;;;;;2.07;1.97;;;37.50;31.50;;;;;;5078025;28;20449;-65
2022/08/11 11:09:14;;;;;;;3.30;2.53;;;37.50;32.90;;;;;;5077159;28;20503;-65
2022/08/11 11:20:16;;;;;;;1.80;1.70;;;37.70;31.00;;;;;;5077352;28;20565;-64
2022/08/11 11:22:47;;;;;;;3.47;2.20;;;37.40;31.70;;;;;;5077203;28;20864;-66
2022/08/11 11:25:29;;;;;;;2.40;2.30;;;37.30;32.40;;;;;;5077768;28;20900;-65
2022/08/11 11:28:18;;;;;;;2.30;2.10;;;37.10;32.10;;;;;;5077610;28;20441;-65
2022/08/11 11:30:56;;;;;;;3.00;2.70;;;36.40;31.50;;;;;;5077134;28;20870;-64
2022/08/11 11:33:37;;;;;;;3.90;3.30;;;36.10;33.00;;;;;;5077132;28;20437;-65
2022/08/11 11:36:14;;;;;;;2.30;2.13;;;36.00;32.80;;;;;;5077413;28;20776;-65
2022/08/11 11:38:41;;;;;;;3.53;2.50;;;35.80;33.10;;;;;;5077240;28;20434;-66
2022/08/11 11:41:27;;;;;;;2.50;2.10;;;35.40;33.30;;;;;;5076598;28;20473;-65
2022/08/11 11:43:56;;;;;;;2.20;2.00;;;34.80;33.20;;;;;;5077192;28;20458;-64
2022/08/11 11:46:26;;;;;;;2.00;1.90;;;34.60;34.00;;;;;;5076530;28;20992;-65
2022/08/11 11:48:55;;;;;;;2.20;2.07;;;34.60;34.20;;;;;;5077729;28;20837;-64
2022/08/11 11:51:23;;;;;;;2.10;2.00;;;34.40;33.80;;;;;;5076667;28;20849;-65
2022/08/11 11:53:51;;;;;;;2.30;2.20;;;34.20;34.00;;;;;;5076730;28;20457;-64
2022/08/11 11:56:19;;;;;;;2.07;2.07;;;33.80;34.70;;;;;;5077113;28;20454;-65
2022/08/11 12:01:33;;;;;;;2.00;1.90;;;33.90;35.80;;;;;;5076255;28;20844;-64
2022/08/11 12:04:05;;;;;;;2.20;2.10;;;33.90;35.70;;;;;;5076390;28;20478;-65
2022/08/11 12:06:33;;;;;;;2.10;2.00;;;34.10;36.30;;;;;;5076231;28;20430;-65
2022/08/11 12:09:00;;;;;;;2.57;2.30;;;34.20;35.30;;;;;;5076403;28;20434;-63
2022/08/11 12:14:17;;;;;;;4.00;2.10;;;34.30;34.20;;;;;;5076422;28;20179;-65
2022/08/11 12:16:46;;;;;;;2.40;2.20;;;33.70;34.00;;;;;;5076057;28;20442;-67
2022/08/11 12:19:17;;;;;;;2.67;2.57;;;33.10;35.40;;;;;;5076033;28;20454;-67
2022/08/11 12:27:22;;;;;;;2.80;2.10;;;33.10;35.30;;;;;;5078364;28;20436;-65
2022/08/11 12:29:50;;;;;;;1.97;1.87;;;32.90;34.80;;;;;;5077900;28;20792;-65
2022/08/11 12:32:19;;;;;;;2.70;2.50;;;32.90;36.10;;;;;;5077066;28;20515;-65
2022/08/11 12:34:47;;;;;;;2.20;2.00;;;33.00;35.70;;;;;;5076211;28;20454;-65
2022/08/11 12:37:16;;;;;;;2.13;1.90;;;32.90;35.00;;;;;;5076017;28;20442;-66
2022/08/11 12:45:30;;;;;;;4.50;2.17;;;32.90;35.40;;;;;;5075483;28;21007;-66
2022/08/11 12:53:46;;;;;;;2.30;2.20;;;33.40;35.80;;;;;;5074877;28;20940;-65
2022/08/11 13:07:16;;;;;;;2.10;2.00;;;32.90;34.10;;;;;;5074557;28;20780;-66
2022/08/11 13:09:44;;;;;;;2.20;2.10;;;32.70;34.60;;;;;;5074267;28;20537;-64
2022/08/11 13:14:57;;;;;;;4.70;1.93;;;32.70;33.90;;;;;;5074288;28;20748;-65
2022/08/11 13:17:25;;;;;;;2.23;2.13;;;32.60;33.90;;;;;;5074428;28;20446;-65
2022/08/11 13:19:53;;;;;;;2.03;1.93;;;32.60;35.40;;;;;;5074387;28;20449;-65
2022/08/11 13:22:23;;;;;;;4.50;2.27;;;32.70;34.50;;;;;;5074243;28;20473;-65
2022/08/11 13:24:50;;;;;;;2.03;1.93;;;32.60;34.30;;;;;;5074071;28;20987;-65
2022/08/11 13:27:19;;;;;;;7.17;1.70;;;32.60;34.40;;;;;;5074075;28;20449;-65
2022/08/11 13:29:48;;;;;;;2.00;1.90;;;32.80;34.80;;;;;;5074084;28;20548;-66
2022/08/11 13:32:16;;;;;;;2.43;2.20;;;32.70;34.70;;;;;;5073845;28;20960;-65
2022/08/11 13:34:44;;;;;;;2.17;2.07;;;32.80;33.80;;;;;;5074190;28;20488;-65
2022/08/11 13:37:14;;;;;;;1.97;1.80;;;32.90;33.40;;;;;;5074080;28;20454;-64
2022/08/11 13:39:46;;;;;;;2.63;2.40;;;32.70;32.90;;;;;;5074185;28;20450;-64
2022/08/11 13:42:18;;;;;;;2.40;1.90;;;32.60;33.70;;;;;;5073864;28;20474;-64
2022/08/11 13:44:45;;;;;;;4.07;1.90;;;32.70;35.60;;;;;;5074408;28;20438;-64
2022/08/11 13:47:13;;;;;;;2.03;1.90;;;32.80;34.10;;;;;;5074427;28;20450;-65
2022/08/11 13:49:41;;;;;;;1.90;1.80;;;32.70;33.80;;;;;;5086804;28;20450;-65
2022/08/11 13:52:13;;;;;;;2.00;1.80;;;32.90;34.70;;;;;;5086572;28;20466;-65
2022/08/11 13:54:43;;;;;;;3.43;2.17;;;32.90;34.10;;;;;;5086534;28;20445;-65
2022/08/11 13:57:13;;;;;;;2.50;1.87;;;32.90;34.30;;;;;;5077007;28;20457;-65
2022/08/11 13:59:41;;;;;;;3.40;1.93;;;33.00;34.30;;;;;;5074584;28;20517;-65
2022/08/11 14:02:13;;;;;;;3.23;2.13;;;33.00;33.30;;;;;;5073913;28;20505;-64
2022/08/11 14:04:45;;;;;;;2.83;1.90;;;33.10;34.40;;;;;;5074077;28;20433;-65
2022/08/11 14:07:14;;;;;;;6.93;2.30;;;33.10;33.20;;;;;;5073543;28;20507;-65
2022/08/11 14:09:44;;;;;;;1.63;1.60;;;33.00;32.90;;;;;;5073801;28;20482;-65
2022/08/11 14:15:06;;;;;;;3.73;2.33;;;32.60;32.80;;;;;;5073607;28;20426;-65
2022/08/11 14:17:34;;;;;;;2.43;1.73;;;32.50;33.10;;;;;;5073584;28;20447;-65
2022/08/11 14:20:05;;;;;;;2.37;2.20;;;32.40;32.90;;;;;;5073686;28;20449;-67
2022/08/11 14:22:31;;;;;;;4.20;2.20;;;32.50;34.70;;;;;;5073696;28;20470;-65
2022/08/11 14:25:00;;;;;;;3.80;1.80;;;32.60;34.30;;;;;;5077437;28;20489;-65
2022/08/11 14:27:30;;;;;;;1.93;1.90;;;32.60;33.30;;;;;;5077618;28;20457;-65
2022/08/11 14:29:57;;;;;;;1.83;1.73;;;32.50;33.20;;;;;;5077647;28;20458;-66
2022/08/11 14:32:25;;;;;;;2.30;1.60;;;32.50;33.90;;;;;;5078063;28;20879;-65
2022/08/11 14:34:53;;;;;;;2.20;1.93;;;32.50;33.50;;;;;;5077878;28;20446;-65
2022/08/11 14:37:22;;;;;;;1.70;1.60;;;32.50;32.90;;;;;;5077696;28;20450;-66
2022/08/11 14:39:52;;;;;;;3.33;2.13;;;32.60;33.40;;;;;;5077329;28;20450;-65
2022/08/11 14:48:00;;;;;;;3.30;1.80;;;32.30;34.30;;;;;;5077505;28;20429;-64
2022/08/11 14:50:28;;;;;;;2.30;2.20;;;32.40;34.20;;;;;;5078557;28;20534;-65
2022/08/11 14:52:58;;;;;;;2.23;2.03;;;32.40;33.50;;;;;;5078620;28;20452;-66
2022/08/11 14:58:17;;;;;;;2.40;2.27;;;32.40;34.50;;;;;;5078675;28;20791;-65
2022/08/11 15:00:46;;;;;;;3.40;2.17;;;32.50;34.30;;;;;;5077844;28;20474;-66
2022/08/11 15:03:13;;;;;;;2.20;2.00;;;32.60;34.40;;;;;;5078232;28;20564;-65
2022/08/11 15:05:46;;;;;;;2.23;2.03;;;32.50;33.20;;;;;;5077876;28;20479;-66
2022/08/11 15:08:14;;;;;;;6.27;2.20;;;32.30;33.20;;;;;;5078534;28;20476;-67
2022/08/11 15:10:41;;;;;;;1.67;1.57;;;32.30;33.40;;;;;;5077499;28;20520;-66
2022/08/11 15:13:09;;;;;;;4.37;2.00;;;32.30;34.30;;;;;;5077665;28;20450;-66
2022/08/11 15:18:25;;;;;;;3.07;2.10;;;32.10;33.70;;;;;;5077553;28;20425;-66
2022/08/11 15:37:34;;;;;;;2.00;1.90;;;31.80;34.40;;;;;;5076776;28;20781;-63
2022/08/11 15:45:50;;;;;;;3.20;1.90;;;32.00;33.70;;;;;;5086752;28;20496;-64
2022/08/11 15:48:29;;;;;;;2.10;2.00;;;32.00;33.90;;;;;;5081217;28;20434;-64
2022/08/11 15:51:01;;;;;;;2.37;1.93;;;32.10;33.50;;;;;;5076084;28;20476;-64
2022/08/11 15:53:32;;;;;;;2.47;2.27;;;32.00;33.40;;;;;;5076281;28;20435;-64
2022/08/11 15:56:02;;;;;;;2.10;2.00;;;32.00;33.40;;;;;;5075937;28;20924;-65
2022/08/11 16:04:11;;;;;;;2.23;2.13;;;31.80;34.70;;;;;;5075595;28;20921;-65
2022/08/11 16:06:42;;;;;;;2.33;2.13;;;31.60;33.90;;;;;;5075639;28;20472;-66
2022/08/11 16:09:11;;;;;;;1.83;1.73;;;31.60;34.20;;;;;;5075468;28;20933;-65
2022/08/11 16:11:40;;;;;;;1.83;1.80;;;31.50;34.50;;;;;;5075498;28;20473;-66
2022/08/11 16:16:54;;;;;;;2.63;2.00;;;31.40;34.90;;;;;;5075815;28;20514;-66
2022/08/11 16:19:24;;;;;;;2.00;1.90;;;31.30;35.10;;;;;;5075832;28;20457;-64
2022/08/11 16:21:53;;;;;;;2.30;2.03;;;31.30;35.00;;;;;;5075420;28;20481;-65
2022/08/11 16:24:22;;;;;;;4.67;1.90;;;31.30;34.60;;;;;;5075067;28;21000;-65
2022/08/11 16:26:51;;;;;;;3.03;2.13;;;31.30;34.70;;;;;;5075294;28;20450;-65
2022/08/11 16:29:20;;;;;;;5.33;2.07;;;31.20;34.60;;;;;;5074757;28;20826;-65
2022/08/11 16:32:15;;;;;;;2.10;2.00;;;31.20;35.20;;;;;;5074763;28;21012;-65
2022/08/11 16:40:10;;;;;;;2.57;2.20;;;30.80;36.10;;;;;;5075314;28;20195;-67
2022/08/11 16:48:08;;;;;;;2.03;1.90;;;30.70;35.60;;;;;;5075081;28;20413;-67
2022/08/11 16:50:38;;;;;;;2.00;1.90;;;30.60;36.30;;;;;;5075131;28;20450;-67
2022/08/11 16:53:05;;;;;;;2.27;2.17;;;30.50;36.30;;;;;;5075314;28;20434;-67
2022/08/11 16:55:33;;;;;;;3.87;2.27;;;30.40;35.60;;;;;;5075697;28;20507;-68
2022/08/11 17:00:47;;;;;;;2.17;2.00;;;30.20;36.70;;;;;;5075689;28;20539;-65
2022/08/11 17:14:25;;;;;;;2.27;2.17;;;29.80;36.70;;;;;;5075100;28;20477;-64
2022/08/11 17:16:53;;;;;;;4.53;2.37;;;29.70;36.90;;;;;;5075552;28;20434;-65
2022/08/11 17:19:23;;;;;;;2.60;2.13;;;29.60;37.70;;;;;;5075767;28;20446;-65
2022/08/11 17:24:41;;;;;;;3.73;2.13;;;29.50;37.40;;;;;;5075451;28;20517;-65
2022/08/11 17:27:09;;;;;;;2.60;2.50;;;29.50;37.80;;;;;;5075582;28;20931;-65
2022/08/11 17:29:38;;;;;;;2.20;2.00;;;29.40;37.40;;;;;;5075465;28;20949;-65
2022/08/11 17:37:41;;;;;;;2.13;2.03;;;29.20;38.10;;;;;;5075420;28;20537;-65
2022/08/11 17:40:11;;;;;;;2.27;2.17;;;29.10;38.20;;;;;;5075253;28;20807;-65
2022/08/11 17:48:25;;;;;;;3.73;2.30;;;29.00;38.90;;;;;;5074513;28;20422;-66
2022/08/11 17:50:52;;;;;;;3.13;2.00;;;28.90;38.60;;;;;;5074071;28;20480;-66
2022/08/11 18:01:39;;;;;;;6.50;2.50;;;28.60;40.00;;;;;;5074208;28;20468;-66
2022/08/11 18:04:08;;;;;;;3.43;2.37;;;28.50;40.50;;;;;;5074935;28;20474;-65
2022/08/11 18:06:37;;;;;;;2.30;2.20;;;28.50;39.70;;;;;;5074157;28;21029;-67
